createdAt,value
2023-08-21T00:00:19.913Z,4.33
2023-08-21T00:02:47.359Z,5.10
2023-08-21T00:05:14.478Z,4.63
2023-08-21T00:07:41.894Z,4.80
2023-08-21T00:10:11.300Z,5.00
2023-08-21T00:12:38.598Z,4.47
2023-08-21T00:15:06.164Z,4.83
2023-08-21T00:17:34.389Z,4.60
2023-08-21T00:20:01.480Z,4.60
2023-08-21T00:22:28.585Z,4.80
2023-08-21T00:24:55.988Z,4.70
2023-08-21T00:27:23.075Z,4.37
2023-08-21T00:29:50.149Z,4.90
2023-08-21T00:32:17.639Z,4.63
2023-08-21T00:34:44.754Z,5.07
2023-08-21T00:37:12.221Z,5.10
2023-08-21T00:39:39.649Z,5.00
2023-08-21T00:42:08.264Z,4.80
2023-08-21T00:44:35.376Z,5.10
2023-08-21T00:47:02.550Z,4.70
2023-08-21T00:49:30.403Z,4.47
2023-08-21T00:51:57.820Z,4.47
2023-08-21T00:54:25.388Z,4.70
2023-08-21T00:56:53.455Z,4.60
2023-08-21T00:59:21.385Z,4.90
2023-08-21T01:01:48.915Z,5.03
2023-08-21T01:04:16.085Z,5.20
2023-08-21T01:06:43.479Z,4.60
2023-08-21T01:09:14.176Z,5.00
2023-08-21T01:11:46.729Z,4.90
2023-08-21T01:14:14.116Z,4.83
2023-08-21T01:16:42.499Z,4.57
2023-08-21T01:19:16.379Z,4.70
2023-08-21T01:21:43.508Z,4.50
2023-08-21T01:24:10.614Z,4.70
2023-08-21T01:26:38.055Z,5.03
2023-08-21T01:29:05.288Z,4.60
2023-08-21T01:31:34.489Z,4.67
2023-08-21T01:34:03.939Z,4.87
2023-08-21T01:36:31.104Z,4.30
2023-08-21T01:38:58.281Z,4.57
2023-08-21T01:41:26.434Z,4.63
2023-08-21T01:43:53.526Z,4.53
2023-08-21T01:46:20.752Z,4.40
2023-08-21T01:48:48.213Z,4.30
2023-08-21T01:51:15.452Z,4.57
2023-08-21T01:53:42.552Z,4.13
2023-08-21T01:56:10.050Z,3.70
2023-08-21T01:58:37.136Z,4.00
2023-08-21T02:01:05.977Z,4.00
2023-08-21T02:03:33.648Z,4.47
2023-08-21T02:06:00.846Z,3.93
2023-08-21T02:08:34.680Z,4.20
2023-08-21T02:11:02.144Z,4.30
2023-08-21T02:13:29.278Z,4.13
2023-08-21T02:15:56.826Z,4.37
2023-08-21T02:18:24.010Z,4.60
2023-08-21T02:20:51.201Z,4.00
2023-08-21T02:23:18.428Z,4.07
2023-08-21T02:25:45.544Z,4.67
2023-08-21T02:28:12.641Z,4.40
2023-08-21T02:30:43.223Z,4.80
2023-08-21T02:33:10.432Z,4.20
2023-08-21T02:35:37.696Z,4.27
2023-08-21T02:38:05.230Z,4.30
2023-08-21T02:40:32.343Z,4.07
2023-08-21T02:42:59.812Z,4.40
2023-08-21T02:45:26.932Z,4.03
2023-08-21T02:47:54.187Z,3.87
2023-08-21T02:50:21.312Z,4.30
2023-08-21T02:52:48.733Z,4.00
2023-08-21T02:55:16.811Z,4.30
2023-08-21T02:57:43.959Z,3.97
2023-08-21T03:00:13.231Z,4.30
2023-08-21T03:02:44.645Z,4.50
2023-08-21T03:05:12.601Z,3.90
2023-08-21T03:07:40.587Z,4.33
2023-08-21T03:10:08.346Z,4.10
2023-08-21T03:12:35.535Z,4.07
2023-08-21T03:15:02.728Z,4.30
2023-08-21T03:17:29.801Z,4.27
2023-08-21T03:19:57.046Z,4.43
2023-08-21T03:22:24.170Z,4.70
2023-08-21T03:24:51.259Z,3.90
2023-08-21T03:27:18.376Z,3.90
2023-08-21T03:29:49.813Z,3.90
2023-08-21T03:32:17.604Z,4.10
2023-08-21T03:34:44.948Z,3.90
2023-08-21T03:37:12.670Z,4.00
2023-08-21T03:39:40.870Z,4.00
2023-08-21T03:42:08.016Z,3.47
2023-08-21T03:44:35.540Z,4.37
2023-08-21T03:47:02.649Z,3.73
2023-08-21T03:49:29.734Z,3.90
2023-08-21T03:51:57.158Z,4.90
2023-08-21T03:54:24.295Z,4.03
2023-08-21T03:56:51.380Z,4.47
2023-08-21T03:59:18.802Z,4.40
2023-08-21T04:01:45.926Z,4.10
2023-08-21T04:04:13.163Z,4.00
2023-08-21T04:06:40.957Z,4.10
2023-08-21T04:09:08.108Z,4.40
2023-08-21T04:11:38.714Z,4.20
2023-08-21T04:14:06.407Z,4.40
2023-08-21T04:16:33.596Z,4.10
2023-08-21T04:19:00.700Z,4.70
2023-08-21T04:21:27.826Z,4.50
2023-08-21T04:23:55.054Z,4.10
2023-08-21T04:26:22.178Z,4.73
2023-08-21T04:28:49.659Z,5.17
2023-08-21T04:31:16.926Z,4.60
2023-08-21T04:33:44.123Z,4.17
2023-08-21T04:36:16.863Z,4.63
2023-08-21T04:38:44.572Z,4.50
2023-08-21T04:41:11.782Z,4.17
2023-08-21T04:43:39.286Z,4.30
2023-08-21T04:46:07.106Z,4.13
2023-08-21T04:48:37.210Z,4.50
2023-08-21T04:51:04.646Z,4.20
2023-08-21T04:53:31.747Z,4.30
2023-08-21T04:56:01.255Z,4.87
2023-08-21T04:58:28.694Z,4.13
2023-08-21T05:00:55.813Z,4.33
2023-08-21T05:03:22.939Z,4.60
2023-08-21T05:05:57.228Z,4.23
2023-08-21T05:08:25.539Z,4.47
2023-08-21T05:10:57.270Z,4.60
2023-08-21T05:13:24.377Z,4.10
2023-08-21T05:15:58.653Z,4.87
2023-08-21T05:18:26.608Z,4.77
2023-08-21T05:20:56.858Z,4.67
2023-08-21T05:23:24.125Z,4.70
2023-08-21T05:25:51.356Z,4.93
2023-08-21T05:28:18.446Z,5.10
2023-08-21T05:30:48.112Z,4.80
2023-08-21T05:33:15.205Z,4.90
2023-08-21T05:35:42.973Z,5.10
2023-08-21T05:38:10.397Z,5.10
2023-08-21T05:40:37.519Z,4.67
2023-08-21T05:43:05.013Z,5.00
2023-08-21T05:45:33.341Z,4.80
2023-08-21T05:48:00.546Z,5.40
2023-08-21T05:50:27.744Z,5.07
2023-08-21T05:52:55.884Z,5.40
2023-08-21T05:55:23.074Z,6.30
2023-08-21T05:57:50.467Z,5.57
2023-08-21T06:00:18.091Z,6.00
2023-08-21T06:02:45.275Z,5.70
2023-08-21T06:05:12.437Z,5.80
2023-08-21T06:07:41.281Z,5.90
2023-08-21T06:10:09.396Z,5.77
2023-08-21T06:12:36.678Z,6.00
2023-08-21T06:15:04.088Z,5.75
2023-08-21T06:17:31.234Z,6.30
2023-08-21T06:19:58.543Z,6.10
2023-08-21T06:22:25.648Z,6.28
2023-08-21T06:24:52.756Z,6.55
2023-08-21T06:27:19.862Z,6.70
2023-08-21T06:29:47.250Z,6.50
2023-08-21T06:32:14.437Z,6.65
2023-08-21T06:34:41.522Z,7.07
2023-08-21T06:37:08.966Z,6.30
2023-08-21T06:39:36.049Z,6.20
2023-08-21T06:42:03.339Z,6.63
2023-08-21T06:44:30.819Z,6.80
2023-08-21T06:46:57.966Z,6.45
2023-08-21T06:49:25.103Z,6.78
2023-08-21T06:51:52.497Z,5.95
2023-08-21T06:54:19.589Z,6.95
2023-08-21T06:56:46.726Z,6.90
2023-08-21T06:59:14.142Z,6.75
2023-08-21T07:01:41.591Z,6.70
2023-08-21T07:04:08.744Z,6.82
2023-08-21T07:06:36.196Z,6.65
2023-08-21T07:09:03.433Z,6.10
2023-08-21T07:11:30.547Z,6.28
2023-08-21T07:13:58.093Z,6.15
2023-08-21T07:16:25.774Z,6.30
2023-08-21T07:18:52.920Z,5.80
2023-08-21T07:21:32.281Z,5.65
2023-08-21T07:24:01.004Z,6.15
2023-08-21T07:26:29.858Z,6.18
2023-08-21T07:28:56.959Z,6.72
2023-08-21T07:31:24.538Z,6.20
2023-08-21T07:33:51.991Z,6.57
2023-08-21T07:36:19.177Z,6.47
2023-08-21T07:38:46.470Z,6.25
2023-08-21T07:41:14.676Z,6.60
2023-08-21T07:43:42.831Z,6.03
2023-08-21T07:46:17.608Z,5.80
2023-08-21T07:48:45.127Z,6.07
2023-08-21T07:51:12.303Z,6.28
2023-08-21T07:53:39.860Z,5.97
2023-08-21T07:56:09.256Z,6.13
2023-08-21T07:58:36.467Z,6.53
2023-08-21T08:01:06.149Z,5.82
2023-08-21T08:03:33.836Z,6.25
2023-08-21T08:06:01.112Z,6.05
2023-08-21T08:08:30.534Z,6.63
2023-08-21T08:10:57.629Z,6.18
2023-08-21T08:13:24.730Z,6.70
2023-08-21T08:15:52.138Z,6.38
2023-08-21T08:18:19.297Z,6.40
2023-08-21T08:20:46.438Z,6.45
2023-08-21T08:23:14.361Z,6.30
2023-08-21T08:25:41.445Z,6.35
2023-08-21T08:28:08.521Z,6.90
2023-08-21T08:30:36.144Z,6.63
2023-08-21T08:33:03.354Z,6.95
2023-08-21T08:35:30.459Z,7.45
2023-08-21T08:37:57.843Z,6.78
2023-08-21T08:40:24.998Z,6.45
2023-08-21T08:42:52.210Z,7.05
2023-08-21T08:45:23.819Z,6.63
2023-08-21T08:47:51.096Z,6.25
2023-08-21T08:50:18.834Z,6.45
2023-08-21T08:52:46.330Z,6.47
2023-08-21T08:55:13.650Z,6.65
2023-08-21T08:57:40.829Z,7.22
2023-08-21T09:00:08.828Z,6.38
2023-08-21T09:02:35.998Z,6.15
2023-08-21T09:05:03.204Z,5.90
2023-08-21T09:07:30.613Z,6.55
2023-08-21T09:09:57.704Z,6.40
2023-08-21T09:12:24.789Z,6.28
2023-08-21T09:14:52.229Z,6.43
2023-08-21T09:17:19.359Z,6.85
2023-08-21T09:19:46.547Z,6.35
2023-08-21T09:22:14.868Z,6.70
2023-08-21T09:24:43.496Z,6.47
2023-08-21T09:27:17.132Z,6.07
2023-08-21T09:29:44.603Z,6.30
2023-08-21T09:32:12.094Z,6.03
2023-08-21T09:34:40.003Z,6.60
2023-08-21T09:37:08.552Z,6.05
2023-08-21T09:39:36.417Z,6.20
2023-08-21T09:42:07.328Z,5.88
2023-08-21T09:44:43.922Z,5.95
2023-08-21T09:47:12.902Z,5.50
2023-08-21T09:49:40.717Z,5.70
2023-08-21T09:52:08.640Z,5.00
2023-08-21T09:54:36.300Z,4.95
2023-08-21T09:57:04.765Z,4.80
2023-08-21T09:59:35.068Z,4.85
2023-08-21T10:02:02.728Z,4.90
2023-08-21T10:04:31.544Z,5.20
2023-08-21T10:06:59.760Z,5.07
2023-08-21T10:09:29.459Z,4.78
2023-08-21T10:11:57.508Z,4.80
2023-08-21T10:14:25.351Z,4.53
2023-08-21T10:16:55.036Z,4.45
2023-08-21T10:19:22.519Z,4.60
2023-08-21T10:21:50.386Z,5.03
2023-08-21T10:24:30.918Z,4.35
2023-08-21T10:27:01.276Z,4.30
2023-08-21T10:29:28.684Z,4.50
2023-08-21T10:32:04.096Z,4.28
2023-08-21T10:34:38.802Z,4.55
2023-08-21T10:37:16.354Z,4.20
2023-08-21T10:39:56.540Z,3.92
2023-08-21T10:42:39.815Z,4.43
2023-08-21T10:45:13.629Z,4.07
2023-08-21T10:47:40.943Z,4.30
2023-08-21T10:50:09.627Z,4.70
2023-08-21T10:52:37.000Z,4.28
2023-08-21T10:55:05.357Z,4.40
2023-08-21T10:57:33.006Z,4.28
2023-08-21T11:00:05.591Z,4.40
2023-08-21T11:02:33.560Z,4.30
2023-08-21T11:05:02.047Z,4.50
2023-08-21T11:07:29.991Z,4.07
2023-08-21T11:09:57.411Z,4.25
2023-08-21T11:12:25.227Z,4.60
2023-08-21T11:14:53.033Z,4.57
2023-08-21T11:17:20.162Z,4.70
2023-08-21T11:19:49.339Z,4.40
2023-08-21T11:22:16.803Z,4.60
2023-08-21T11:24:43.935Z,4.32
2023-08-21T11:27:12.026Z,4.60
2023-08-21T11:29:47.052Z,4.95
2023-08-21T11:32:15.354Z,4.60
2023-08-21T11:34:43.353Z,4.60
2023-08-21T11:37:10.836Z,4.35
2023-08-21T11:39:49.046Z,4.10
2023-08-21T11:42:16.620Z,4.53
2023-08-21T11:44:45.168Z,4.32
2023-08-21T11:47:12.350Z,5.20
2023-08-21T11:49:43.816Z,4.45
2023-08-21T11:52:12.218Z,4.70
2023-08-21T11:54:41.556Z,5.10
2023-08-21T11:57:18.531Z,4.97
2023-08-21T11:59:51.490Z,5.03
2023-08-21T12:02:19.374Z,4.80
2023-08-21T12:04:46.532Z,5.15
2023-08-21T12:07:14.762Z,5.28
2023-08-21T12:09:41.891Z,4.70
2023-08-21T12:12:09.495Z,4.97
2023-08-21T12:14:40.457Z,4.90
2023-08-21T12:17:08.480Z,5.05
2023-08-21T12:19:35.708Z,4.78
2023-08-21T12:22:03.127Z,5.18
2023-08-21T12:24:30.580Z,4.85
2023-08-21T12:26:57.791Z,5.35
2023-08-21T12:29:24.887Z,5.25
2023-08-21T12:31:52.404Z,5.38
2023-08-21T12:34:20.241Z,5.30
2023-08-21T12:36:47.517Z,5.38
2023-08-21T12:39:17.428Z,5.10
2023-08-21T12:41:44.515Z,5.55
2023-08-21T12:44:11.662Z,5.35
2023-08-21T12:46:39.138Z,5.03
2023-08-21T12:49:06.303Z,5.55
2023-08-21T12:51:33.402Z,5.10
2023-08-21T12:54:00.909Z,5.18
2023-08-21T12:56:28.027Z,4.65
2023-08-21T12:58:55.158Z,4.93
2023-08-21T13:01:22.676Z,4.95
2023-08-21T13:03:49.946Z,5.03
2023-08-21T13:06:17.103Z,4.72
2023-08-21T13:08:44.583Z,5.00
2023-08-21T13:11:11.670Z,4.88
2023-08-21T13:13:38.802Z,4.82
2023-08-21T13:16:06.242Z,5.00
2023-08-21T13:18:33.372Z,4.60
2023-08-21T13:21:00.463Z,4.60
2023-08-21T13:23:27.921Z,5.10
2023-08-21T13:25:55.468Z,4.90
2023-08-21T13:28:22.573Z,4.45
2023-08-21T13:30:49.993Z,4.82
2023-08-21T13:33:18.921Z,4.88
2023-08-21T13:35:46.454Z,4.60
2023-08-21T13:38:16.677Z,5.10
2023-08-21T13:40:43.917Z,4.60
2023-08-21T13:43:11.949Z,4.90
2023-08-21T13:45:41.080Z,5.13
2023-08-21T13:48:08.380Z,5.10
2023-08-21T13:50:36.635Z,5.10
2023-08-21T13:53:04.268Z,5.43
2023-08-21T13:55:31.398Z,4.85
2023-08-21T13:57:58.569Z,4.45
2023-08-21T14:00:25.999Z,4.60
2023-08-21T14:02:53.190Z,4.78
2023-08-21T14:05:20.349Z,4.57
2023-08-21T14:07:48.036Z,5.10
2023-08-21T14:10:15.504Z,4.57
2023-08-21T14:12:43.012Z,4.45
2023-08-21T14:15:10.829Z,4.68
2023-08-21T14:17:38.781Z,5.10
2023-08-21T14:20:08.095Z,4.70
2023-08-21T14:22:35.639Z,4.80
2023-08-21T14:25:04.169Z,5.00
2023-08-21T14:27:34.041Z,4.80
2023-08-21T14:30:01.576Z,5.13
2023-08-21T14:32:28.768Z,5.22
2023-08-21T14:34:55.862Z,5.05
2023-08-21T14:37:25.060Z,4.72
2023-08-21T14:39:52.158Z,4.40
2023-08-21T14:42:20.049Z,4.70
2023-08-21T14:44:47.239Z,4.57
2023-08-21T14:47:14.352Z,4.70
2023-08-21T14:49:42.036Z,4.63
2023-08-21T14:52:09.558Z,4.35
2023-08-21T14:54:36.742Z,4.32
2023-08-21T14:57:03.962Z,4.55
2023-08-21T14:59:31.382Z,4.70
2023-08-21T15:01:58.588Z,4.20
2023-08-21T15:04:25.730Z,4.70
2023-08-21T15:06:53.149Z,4.40
2023-08-21T15:09:20.330Z,4.40
2023-08-21T15:11:47.427Z,4.50
2023-08-21T15:14:14.857Z,4.28
2023-08-21T15:16:42.240Z,4.35
2023-08-21T15:19:09.508Z,4.10
2023-08-21T15:21:36.937Z,4.10
2023-08-21T15:24:05.730Z,4.28
2023-08-21T15:26:33.006Z,4.20
2023-08-21T15:29:00.500Z,4.13
2023-08-21T15:31:29.219Z,4.07
2023-08-21T15:33:56.395Z,4.05
2023-08-21T15:36:23.819Z,4.22
2023-08-21T15:38:51.044Z,4.00
2023-08-21T15:41:18.128Z,4.30
2023-08-21T15:43:45.548Z,3.85
2023-08-21T15:46:12.717Z,3.80
2023-08-21T15:48:39.863Z,4.10
2023-08-21T15:51:07.323Z,4.20
2023-08-21T15:53:34.441Z,4.10
2023-08-21T15:56:01.572Z,3.72
2023-08-21T15:58:29.558Z,4.25
2023-08-21T16:00:58.100Z,4.03
2023-08-21T16:03:25.340Z,4.53
2023-08-21T16:05:52.830Z,4.30
2023-08-21T16:08:19.945Z,4.47
2023-08-21T16:10:47.151Z,4.70
2023-08-21T16:13:14.560Z,4.43
2023-08-21T16:15:42.066Z,4.85
2023-08-21T16:18:11.021Z,4.65
2023-08-21T16:20:39.140Z,4.72
2023-08-21T16:23:07.757Z,4.72
2023-08-21T16:25:35.080Z,4.50
2023-08-21T16:28:02.504Z,4.53
2023-08-21T16:30:29.649Z,4.80
2023-08-21T16:32:56.791Z,3.83
2023-08-21T16:35:24.247Z,4.30
2023-08-21T16:37:51.337Z,4.13
2023-08-21T16:40:18.498Z,4.20
2023-08-21T16:42:45.950Z,4.18
2023-08-21T16:45:15.081Z,3.83
2023-08-21T16:47:42.316Z,4.20
2023-08-21T16:50:09.916Z,4.40
2023-08-21T16:52:37.428Z,4.50
2023-08-21T16:55:04.885Z,4.50
2023-08-21T16:57:33.328Z,4.55
2023-08-21T17:00:00.433Z,4.78
2023-08-21T17:02:27.529Z,4.45
2023-08-21T17:04:55.692Z,4.40
2023-08-21T17:07:22.771Z,4.72
2023-08-21T17:09:50.293Z,4.53
2023-08-21T17:12:18.473Z,5.00
2023-08-21T17:14:46.142Z,4.40
2023-08-21T17:17:13.509Z,4.63
2023-08-21T17:19:40.987Z,4.73
2023-08-21T17:22:08.610Z,4.72
2023-08-21T17:24:35.707Z,5.00
2023-08-21T17:27:04.206Z,4.97
2023-08-21T17:29:31.362Z,4.70
2023-08-21T17:31:58.432Z,4.47
2023-08-21T17:34:25.935Z,4.87
2023-08-21T17:36:53.661Z,4.80
2023-08-21T17:39:20.953Z,4.37
2023-08-21T17:41:48.474Z,4.40
2023-08-21T17:44:15.665Z,4.30
2023-08-21T17:46:42.825Z,4.93
2023-08-21T17:49:10.348Z,4.40
2023-08-21T17:51:37.456Z,4.43
2023-08-21T17:54:04.819Z,4.60
2023-08-21T17:56:32.268Z,4.70
2023-08-21T17:58:59.360Z,4.50
2023-08-21T18:01:26.596Z,4.30
2023-08-21T18:03:54.070Z,4.23
2023-08-21T18:06:22.752Z,4.50
2023-08-21T18:08:50.473Z,4.33
2023-08-21T18:11:18.010Z,4.53
2023-08-21T18:13:45.206Z,4.67
2023-08-21T18:16:12.455Z,4.73
2023-08-21T18:18:42.116Z,4.80
2023-08-21T18:21:09.555Z,4.90
2023-08-21T18:23:36.644Z,4.70
2023-08-21T18:26:04.111Z,4.70
2023-08-21T18:28:31.496Z,4.70
2023-08-21T18:30:59.795Z,5.00
2023-08-21T18:33:27.786Z,4.90
2023-08-21T18:35:55.247Z,5.23
2023-08-21T18:38:22.720Z,4.73
2023-08-21T18:40:50.397Z,4.80
2023-08-21T18:43:19.580Z,4.73
2023-08-21T18:45:47.645Z,5.20
2023-08-21T18:48:15.509Z,5.20
2023-08-21T18:50:43.657Z,4.43
2023-08-21T18:53:12.698Z,5.20
2023-08-21T18:55:41.034Z,4.67
2023-08-21T18:58:08.231Z,4.80
2023-08-21T19:00:35.396Z,5.20
2023-08-21T19:03:03.337Z,4.90
2023-08-21T19:05:30.788Z,4.80
2023-08-21T19:08:01.176Z,4.73
2023-08-21T19:10:28.344Z,4.87
2023-08-21T19:12:55.547Z,5.20
2023-08-21T19:15:22.767Z,4.47
2023-08-21T19:17:49.991Z,4.80
2023-08-21T19:20:17.132Z,4.63
2023-08-21T19:22:44.304Z,4.90
2023-08-21T19:25:13.913Z,5.47
2023-08-21T19:27:41.356Z,5.20
2023-08-21T19:30:08.992Z,5.37
2023-08-21T19:32:39.159Z,5.23
2023-08-21T19:35:06.440Z,5.07
2023-08-21T19:37:33.687Z,5.10
2023-08-21T19:40:00.936Z,5.07
2023-08-21T19:42:28.815Z,4.87
2023-08-21T19:44:55.970Z,5.17
2023-08-21T19:47:23.198Z,5.47
2023-08-21T19:49:50.407Z,5.47
2023-08-21T19:52:17.681Z,4.80
2023-08-21T19:54:46.719Z,5.10
2023-08-21T19:57:13.895Z,4.63
2023-08-21T19:59:41.471Z,4.93
2023-08-21T20:02:08.990Z,4.83
2023-08-21T20:04:36.104Z,5.60
2023-08-21T20:07:05.232Z,4.67
2023-08-21T20:09:32.693Z,5.07
2023-08-21T20:11:59.761Z,4.77
2023-08-21T20:14:27.441Z,4.70
2023-08-21T20:16:55.936Z,5.00
2023-08-21T20:19:23.084Z,5.23
2023-08-21T20:21:50.159Z,5.00
2023-08-21T20:24:18.548Z,4.93
2023-08-21T20:26:45.619Z,5.03
2023-08-21T20:29:13.008Z,5.27
2023-08-21T20:31:40.484Z,5.17
2023-08-21T20:34:09.722Z,5.40
2023-08-21T20:36:37.719Z,5.40
2023-08-21T20:39:05.560Z,5.03
2023-08-21T20:41:33.273Z,5.20
2023-08-21T20:44:00.445Z,5.60
2023-08-21T20:46:27.620Z,5.40
2023-08-21T20:48:54.795Z,5.43
2023-08-21T20:51:22.430Z,6.00
2023-08-21T20:53:49.950Z,5.43
2023-08-21T20:56:17.118Z,5.73
2023-08-21T20:58:44.222Z,5.67
2023-08-21T21:01:11.732Z,5.70
2023-08-21T21:03:38.939Z,6.10
2023-08-21T21:06:06.226Z,5.87
2023-08-21T21:08:33.460Z,5.70
2023-08-21T21:11:01.578Z,5.50
2023-08-21T21:13:28.788Z,5.80
2023-08-21T21:15:56.135Z,5.70
2023-08-21T21:18:23.446Z,5.87
2023-08-21T21:20:50.545Z,5.87
2023-08-21T21:23:17.974Z,5.87
2023-08-21T21:25:45.049Z,5.57
2023-08-21T21:28:12.482Z,5.90
2023-08-21T21:30:39.955Z,5.97
2023-08-21T21:33:07.267Z,6.27
2023-08-21T21:35:34.403Z,6.03
2023-08-21T21:38:02.059Z,6.10
2023-08-21T21:40:29.148Z,6.10
2023-08-21T21:42:56.280Z,6.40
2023-08-21T21:45:23.783Z,6.20
2023-08-21T21:47:50.949Z,6.60
2023-08-21T21:50:19.030Z,6.10
2023-08-21T21:52:46.447Z,6.23
2023-08-21T21:55:13.566Z,5.90
2023-08-21T21:57:40.834Z,6.70
2023-08-21T22:00:09.604Z,6.43
2023-08-21T22:02:38.875Z,6.30
2023-08-21T22:05:06.276Z,6.47
2023-08-21T22:07:33.695Z,6.97
2023-08-21T22:10:00.772Z,6.50
2023-08-21T22:12:28.033Z,6.73
2023-08-21T22:14:55.423Z,6.50
2023-08-21T22:17:22.660Z,6.60
2023-08-21T22:19:49.752Z,6.70
2023-08-21T22:22:17.149Z,6.77
2023-08-21T22:24:44.214Z,6.50
2023-08-21T22:27:11.497Z,7.00
2023-08-21T22:29:38.716Z,6.20
2023-08-21T22:32:05.930Z,6.80
2023-08-21T22:34:33.397Z,6.63
2023-08-21T22:37:00.801Z,6.27
2023-08-21T22:39:28.027Z,6.77
2023-08-21T22:41:55.181Z,7.57
2023-08-21T22:44:22.611Z,6.67
2023-08-21T22:46:49.827Z,7.00
2023-08-21T22:49:16.942Z,6.97
2023-08-21T22:51:44.480Z,7.30
2023-08-21T22:54:11.576Z,7.03
2023-08-21T22:56:38.676Z,6.90
2023-08-21T22:59:06.101Z,6.90
2023-08-21T23:01:33.756Z,7.00
2023-08-21T23:04:00.902Z,6.70
2023-08-21T23:06:28.308Z,6.77
2023-08-21T23:08:55.620Z,6.60
2023-08-21T23:11:22.707Z,6.90
2023-08-21T23:13:50.221Z,7.10
2023-08-21T23:16:17.382Z,6.70
2023-08-21T23:18:46.245Z,7.07
2023-08-21T23:21:13.966Z,6.83
2023-08-21T23:23:41.047Z,7.00
2023-08-21T23:26:08.303Z,7.10
2023-08-21T23:28:35.707Z,7.47
2023-08-21T23:31:02.939Z,7.00
2023-08-21T23:33:30.525Z,7.50
2023-08-21T23:35:58.011Z,7.87
2023-08-21T23:38:26.057Z,7.30
2023-08-21T23:40:53.650Z,7.57
2023-08-21T23:43:20.926Z,7.23
2023-08-21T23:45:48.317Z,7.80
2023-08-21T23:48:15.539Z,7.47
2023-08-21T23:50:43.011Z,7.57
2023-08-21T23:53:10.140Z,7.20
2023-08-21T23:55:38.292Z,7.47
2023-08-21T23:58:06.672Z,7.23
